createdAt,value
2023-02-06T00:04:22.979Z,-5.67
2023-02-06T00:09:22.963Z,-5.78
2023-02-06T00:14:22.946Z,-5.71
2023-02-06T00:19:22.926Z,-5.38
2023-02-06T00:24:22.909Z,-5.43
2023-02-06T00:29:22.891Z,-5.62
2023-02-06T00:34:22.891Z,-5.59
2023-02-06T00:39:22.836Z,-5.57
2023-02-06T00:44:22.819Z,-5.60
2023-02-06T00:49:22.801Z,-5.51
2023-02-06T00:54:22.774Z,-5.48
2023-02-06T00:59:22.742Z,-5.49
2023-02-06T01:04:22.713Z,-5.48
2023-02-06T01:09:22.660Z,-5.52
2023-02-06T01:14:22.648Z,-5.55
2023-02-06T01:19:22.602Z,-5.48
2023-02-06T01:24:22.577Z,-5.24
2023-02-06T01:29:22.562Z,-5.01
2023-02-06T01:34:22.545Z,-5.06
2023-02-06T01:39:22.513Z,-5.09
2023-02-06T01:44:22.505Z,-4.88
2023-02-06T01:49:22.473Z,-4.72
2023-02-06T01:54:22.459Z,-4.63
2023-02-06T01:59:22.437Z,-4.65
2023-02-06T02:04:22.428Z,-4.76
2023-02-06T02:09:22.401Z,-4.76
2023-02-06T02:14:22.384Z,-4.79
2023-02-06T02:19:22.375Z,-4.94
2023-02-06T02:24:22.355Z,-4.94
2023-02-06T02:29:22.335Z,-4.70
2023-02-06T02:34:22.322Z,-4.40
2023-02-06T02:39:22.308Z,-4.20
2023-02-06T02:44:22.276Z,-4.12
2023-02-06T02:49:22.250Z,-4.10
2023-02-06T02:54:22.235Z,-4.13
2023-02-06T02:59:22.159Z,-4.01
2023-02-06T03:04:22.128Z,-3.92
2023-02-06T03:09:22.106Z,-3.77
2023-02-06T03:14:22.090Z,-3.64
2023-02-06T03:19:22.065Z,-3.44
2023-02-06T03:24:22.049Z,-3.33
2023-02-06T03:29:22.035Z,-3.19
2023-02-06T03:34:22.012Z,-3.08
2023-02-06T03:39:21.969Z,-2.95
2023-02-06T03:44:21.950Z,-2.80
2023-02-06T03:49:21.938Z,-2.66
2023-02-06T03:54:21.924Z,-2.61
2023-02-06T03:59:21.911Z,-2.53
2023-02-06T04:04:21.901Z,-2.47
2023-02-06T04:09:21.848Z,-2.43
2023-02-06T04:14:21.844Z,-2.43
2023-02-06T04:19:21.805Z,-2.28
2023-02-06T04:24:21.806Z,-2.29
2023-02-06T04:29:21.781Z,-2.25
2023-02-06T04:34:21.756Z,-2.22
2023-02-06T04:39:21.747Z,-2.22
2023-02-06T04:44:21.738Z,-2.10
2023-02-06T04:49:21.718Z,-2.07
2023-02-06T04:54:21.687Z,-2.04
2023-02-06T04:59:21.673Z,-2.01
2023-02-06T05:04:21.649Z,-1.93
2023-02-06T05:09:21.617Z,-1.89
2023-02-06T05:14:21.600Z,-1.89
2023-02-06T05:19:21.585Z,-1.90
2023-02-06T05:24:21.566Z,-1.90
2023-02-06T05:29:21.546Z,-1.86
2023-02-06T05:34:21.535Z,-1.88
2023-02-06T05:39:21.520Z,-1.89
2023-02-06T05:44:21.503Z,-1.89
2023-02-06T05:49:23.112Z,-1.88
2023-02-06T05:54:21.466Z,-1.82
2023-02-06T05:59:21.428Z,-1.88
2023-02-06T06:04:21.507Z,-1.82
2023-02-06T06:09:21.385Z,-1.75
2023-02-06T06:14:21.370Z,-1.62
2023-02-06T06:19:21.358Z,-1.53
2023-02-06T06:24:21.336Z,-1.41
2023-02-06T06:29:21.313Z,-1.25
2023-02-06T06:34:21.313Z,-1.08
2023-02-06T06:39:21.245Z,-0.97
2023-02-06T06:44:21.229Z,-0.97
2023-02-06T06:49:21.244Z,-0.89
2023-02-06T06:54:24.453Z,-0.92
2023-02-06T06:59:24.047Z,-0.93
2023-02-06T07:04:21.155Z,-0.90
2023-02-06T07:09:21.119Z,-0.86
2023-02-06T07:14:24.461Z,-0.80
2023-02-06T07:19:22.767Z,-0.77
2023-02-06T07:24:25.462Z,-0.73
2023-02-06T07:29:23.587Z,-0.63
2023-02-06T07:34:28.722Z,-0.53
2023-02-06T09:56:42.229Z,-0.44
2023-02-06T09:56:47.047Z,0.75
2023-02-06T10:01:48.780Z,0.77
2023-02-06T10:06:51.446Z,0.77
2023-02-06T10:11:47.737Z,0.80
2023-02-06T12:31:11.813Z,0.80
2023-02-06T12:31:16.707Z,0.71
2023-02-06T12:36:17.292Z,0.74
2023-02-06T14:57:46.958Z,0.78
2023-02-06T14:57:51.709Z,0.15
2023-02-06T15:02:51.701Z,0.16
2023-02-06T15:07:51.658Z,0.17
2023-02-06T15:12:51.641Z,0.16
2023-02-06T15:17:51.617Z,0.15
2023-02-06T15:22:51.602Z,0.13
2023-02-06T15:27:51.623Z,0.13
2023-02-06T15:32:51.566Z,0.12
2023-02-06T15:37:51.561Z,0.07
2023-02-06T15:42:51.531Z,0.10
2023-02-06T15:47:51.532Z,0.12
2023-02-06T15:52:51.550Z,0.15
2023-02-06T15:57:51.496Z,0.13
2023-02-06T16:02:51.494Z,0.13
2023-02-06T16:07:51.436Z,0.12
2023-02-06T16:12:51.425Z,0.08
2023-02-06T16:17:51.399Z,0.01
2023-02-06T16:22:51.377Z,0.05
2023-02-06T16:27:51.473Z,0.02
2023-02-06T16:32:51.341Z,-0.12
2023-02-06T16:37:51.315Z,-0.14
2023-02-06T16:42:51.305Z,-0.38
2023-02-06T16:47:51.269Z,-0.44
2023-02-06T16:52:51.251Z,-0.49
2023-02-06T16:57:51.224Z,-0.52
2023-02-06T17:02:51.219Z,-0.53
2023-02-06T17:07:51.205Z,-0.58
2023-02-06T17:12:51.173Z,-0.68
2023-02-06T17:17:53.729Z,-0.68
2023-02-06T17:22:51.122Z,-0.80
2023-02-06T17:27:51.133Z,-0.83
2023-02-06T17:32:51.119Z,-0.89
2023-02-06T17:37:51.057Z,-0.92
2023-02-06T17:42:51.054Z,-0.92
2023-02-06T17:47:51.045Z,-1.00
2023-02-06T17:52:51.018Z,-1.13
2023-02-06T17:57:50.955Z,-1.14
2023-02-06T18:02:50.999Z,-1.10
2023-02-06T18:07:50.893Z,-1.13
2023-02-06T18:12:50.869Z,-1.26
2023-02-06T18:17:50.850Z,-1.35
2023-02-06T18:22:50.832Z,-1.50
2023-02-06T18:27:50.809Z,-1.59
2023-02-06T18:32:50.750Z,-1.68
2023-02-06T18:37:50.718Z,-1.64
2023-02-06T18:42:50.699Z,-1.62
2023-02-06T18:47:50.678Z,-1.62
2023-02-06T18:52:50.676Z,-1.62
2023-02-06T18:57:50.628Z,-1.74
2023-02-06T19:02:50.653Z,-1.72
2023-02-06T19:07:50.579Z,-1.71
2023-02-06T19:12:50.554Z,-1.67
2023-02-06T19:17:50.548Z,-1.70
2023-02-06T19:22:50.514Z,-1.85
2023-02-06T19:27:50.515Z,-1.96
2023-02-06T19:32:50.468Z,-1.88
2023-02-06T19:37:50.446Z,-1.95
2023-02-06T19:42:50.426Z,-2.01
2023-02-06T19:47:50.402Z,-2.14
2023-02-06T19:52:50.400Z,-2.21
2023-02-06T19:57:50.338Z,-2.26
2023-02-06T20:02:50.325Z,-2.35
2023-02-06T20:07:50.300Z,-2.46
2023-02-06T20:12:50.278Z,-2.58
2023-02-06T20:17:50.257Z,-2.66
2023-02-06T20:22:50.234Z,-2.77
2023-02-06T20:27:50.234Z,-2.82
2023-02-06T20:32:50.195Z,-2.80
2023-02-06T20:37:50.144Z,-2.76
2023-02-06T20:42:50.127Z,-2.79
2023-02-06T20:47:50.119Z,-2.89
2023-02-06T20:52:50.056Z,-2.94
2023-02-06T20:57:50.035Z,-3.07
2023-02-06T21:02:52.052Z,-3.12
2023-02-06T21:07:49.987Z,-3.28
2023-02-06T21:12:50.638Z,-3.39
2023-02-06T21:17:49.891Z,-3.44
2023-02-06T21:22:49.840Z,-3.44
2023-02-06T21:27:49.866Z,-3.47
2023-02-06T21:32:49.782Z,-3.51
2023-02-06T21:37:49.777Z,-3.65
2023-02-06T21:42:49.763Z,-3.79
2023-02-06T21:47:49.758Z,-3.92
2023-02-06T21:52:49.739Z,-3.92
2023-02-06T21:57:49.718Z,-3.94
2023-02-06T22:02:49.707Z,-4.07
2023-02-06T22:07:49.681Z,-4.06
2023-02-06T22:12:49.659Z,-4.23
2023-02-06T22:17:49.650Z,-4.41
2023-02-06T22:22:49.664Z,-4.38
2023-02-06T22:27:49.661Z,-4.38
2023-02-06T22:32:49.599Z,-4.41
2023-02-06T22:37:49.589Z,-4.46
2023-02-06T22:42:49.576Z,-4.59
2023-02-06T22:47:49.565Z,-4.69
2023-02-06T22:52:49.545Z,-4.77
2023-02-06T22:57:49.538Z,-4.76
2023-02-06T23:02:49.527Z,-4.83
2023-02-06T23:07:49.521Z,-4.94
2023-02-06T23:12:49.465Z,-5.02
2023-02-06T23:17:49.469Z,-5.13
2023-02-06T23:22:49.401Z,-5.03
2023-02-06T23:27:49.425Z,-5.02
2023-02-06T23:32:49.373Z,-5.01
2023-02-06T23:37:49.360Z,-5.27
2023-02-06T23:42:49.318Z,-5.33
2023-02-06T23:47:49.286Z,-5.33
2023-02-06T23:52:49.266Z,-5.35
2023-02-06T23:57:49.253Z,-5.51
